KUIL/UIL METAR and TAF weather

Enter ICAO airport designator
Station Type Date Time Source
KUIL METAR 2020/01/23 21:13 UTC NOAA

KUIL 232113Z AUTO 18010G17KT 1/2SM -RA FG VV004 10/09 A2984 RMK AO2 P0002 T01000094


Station Type Date Time Source
KUIL Decoded METAR 2020/01/23 21:13 UTC NOAA

QUILLAYUTE STATE AIRPORT, WA, United States (KUIL) 47-56N 124-34W 54M
Jan 23, 2020 - 04:13 PM EST / 2020.01.23 2113 UTC
Wind: from the S (180 degrees) at 12 MPH (10 KT) gusting to 20 MPH (17 KT):0
Visibility: 1/2 mile(s):0
Sky conditions: obscured
Weather: light rain; fog
Precipitation last hour: 0.02 inches
Temperature: 50.0 F (10.0 C)
Dew Point: 48.9 F (9.4 C)
Relative Humidity: 96%
Pressure (altimeter): 29.84 in. Hg (1010 hPa)
ob: KUIL 232113Z AUTO 18010G17KT 1/2SM -RA FG VV004 10/09 A2984 RMK AO2 P0002 T01000094
cycle: 21

Station Type Date Time Source
KUIL TAF UTC NOAA

Error!

Example: see airport list